createdAt,value
2023-04-05T00:00:24.514Z,2.93
2023-04-05T00:04:28.949Z,3.00
2023-04-05T00:08:33.538Z,3.33
2023-04-05T00:12:36.587Z,2.80
2023-04-05T00:16:39.790Z,2.83
2023-04-05T00:20:43.119Z,3.10
2023-04-05T00:24:47.720Z,3.07
2023-04-05T00:28:51.042Z,2.70
2023-04-05T00:32:54.292Z,2.97
2023-04-05T00:36:57.410Z,2.67
2023-04-05T00:41:01.920Z,2.93
2023-04-05T00:45:05.614Z,2.73
2023-04-05T00:49:08.863Z,2.87
2023-04-05T00:53:12.008Z,3.00
2023-04-05T00:57:17.316Z,2.73
2023-04-05T01:01:23.095Z,2.87
2023-04-05T01:05:36.105Z,2.93
2023-04-05T01:09:49.413Z,3.00
2023-04-05T01:13:59.463Z,3.10
2023-04-05T01:18:03.012Z,3.00
2023-04-05T01:22:47.895Z,2.90
2023-04-05T01:27:11.504Z,2.87
2023-04-05T01:31:24.181Z,2.73
2023-04-05T01:35:34.931Z,3.00
2023-04-05T01:39:39.999Z,2.77
2023-04-05T01:43:43.718Z,2.87
2023-04-05T01:47:48.270Z,3.03
2023-04-05T01:51:55.187Z,2.77
2023-04-05T01:56:01.519Z,3.00
2023-04-05T02:00:06.223Z,3.00
2023-04-05T02:04:17.249Z,2.73
2023-04-05T02:08:20.347Z,3.23
2023-04-05T02:12:25.026Z,3.37
2023-04-05T02:16:28.222Z,3.10
2023-04-05T02:20:33.133Z,2.93
2023-04-05T02:24:36.219Z,3.00
2023-04-05T02:28:39.299Z,2.90
2023-04-05T02:32:43.035Z,2.70
2023-04-05T02:36:47.592Z,2.80
2023-04-05T02:40:51.468Z,2.37
2023-04-05T02:44:54.863Z,2.70
2023-04-05T02:48:58.884Z,3.03
2023-04-05T02:53:06.259Z,2.97
2023-04-05T02:57:10.650Z,3.00
2023-04-05T03:01:24.591Z,3.10
2023-04-05T03:05:27.800Z,2.97
2023-04-05T03:09:33.807Z,3.13
2023-04-05T03:13:42.100Z,2.80
2023-04-05T03:17:52.873Z,3.10
2023-04-05T03:21:58.097Z,3.33
2023-04-05T03:26:10.407Z,2.37
2023-04-05T03:30:17.024Z,3.30
2023-04-05T03:34:29.073Z,3.23
2023-04-05T03:38:38.673Z,3.57
2023-04-05T03:42:57.575Z,3.10
2023-04-05T03:47:01.269Z,3.30
2023-04-05T03:51:08.043Z,2.67
2023-04-05T03:55:11.323Z,3.20
2023-04-05T03:59:16.247Z,3.00
2023-04-05T04:03:19.672Z,3.33
2023-04-05T04:07:26.762Z,2.93
2023-04-05T04:11:29.876Z,2.77
2023-04-05T04:15:34.254Z,2.80
2023-04-05T04:19:52.640Z,2.87
2023-04-05T04:24:18.870Z,2.87
2023-04-05T04:28:43.891Z,2.80
2023-04-05T04:33:20.190Z,2.80
2023-04-05T04:37:46.719Z,2.93
2023-04-05T04:42:13.479Z,3.07
2023-04-05T04:46:44.186Z,3.10
2023-04-05T04:51:26.178Z,2.83
2023-04-05T04:55:29.666Z,3.00
2023-04-05T04:59:33.463Z,3.00
2023-04-05T05:03:40.393Z,3.00
2023-04-05T05:07:44.849Z,3.00
2023-04-05T05:11:47.907Z,2.47
2023-04-05T05:15:51.847Z,3.07
2023-04-05T05:19:56.345Z,3.00
2023-04-05T05:24:00.791Z,2.70
2023-04-05T05:28:04.005Z,2.80
2023-04-05T05:32:07.617Z,3.00
2023-04-05T05:36:13.416Z,2.80
2023-04-05T05:40:17.938Z,2.90
2023-04-05T05:44:21.044Z,2.90
2023-04-05T05:48:24.132Z,3.00
2023-04-05T05:52:27.298Z,2.80
2023-04-05T05:56:31.829Z,2.90
2023-04-05T06:00:34.924Z,3.00
2023-04-05T06:04:39.002Z,2.60
2023-04-05T06:08:42.118Z,2.93
2023-04-05T06:12:46.532Z,2.73
2023-04-05T06:16:49.592Z,2.90
2023-04-05T06:20:52.601Z,2.80
2023-04-05T06:24:55.922Z,2.73
2023-04-05T06:29:00.381Z,2.60
2023-04-05T06:33:03.522Z,3.03
2023-04-05T06:37:06.928Z,2.30
2023-04-05T06:41:10.093Z,2.57
2023-04-05T06:45:14.636Z,3.60
2023-04-05T06:49:17.697Z,3.17
2023-04-05T06:53:20.707Z,2.50
2023-04-05T06:57:23.954Z,2.60
2023-04-05T07:01:28.457Z,2.30
2023-04-05T07:05:31.894Z,2.60
2023-04-05T07:09:35.278Z,2.97
2023-04-05T07:13:38.681Z,2.50
2023-04-05T07:17:43.044Z,2.70
2023-04-05T07:21:46.150Z,2.30
2023-04-05T07:25:49.119Z,2.60
2023-04-05T07:29:52.231Z,2.67
2023-04-05T07:33:58.188Z,2.70
2023-04-05T07:38:01.465Z,2.43
2023-04-05T07:42:04.627Z,2.10
2023-04-05T07:46:07.767Z,2.60
2023-04-05T07:50:15.380Z,1.97
2023-04-05T07:54:18.629Z,2.50
2023-04-05T07:58:22.626Z,2.53
2023-04-05T08:02:25.748Z,2.43
2023-04-05T08:06:31.214Z,2.10
2023-04-05T08:10:34.367Z,2.50
2023-04-05T08:14:37.323Z,2.35
2023-04-05T08:18:40.382Z,2.03
2023-04-05T08:22:44.763Z,2.45
2023-04-05T08:26:48.817Z,2.58
2023-04-05T08:30:55.301Z,2.35
2023-04-05T08:34:58.464Z,2.55
2023-04-05T08:39:03.032Z,2.28
2023-04-05T08:43:12.176Z,2.55
2023-04-05T08:47:20.724Z,2.50
2023-04-05T08:51:24.918Z,2.40
2023-04-05T08:55:29.506Z,1.90
2023-04-05T08:59:35.516Z,2.20
2023-04-05T09:03:41.953Z,2.55
2023-04-05T09:07:48.006Z,2.20
2023-04-05T09:11:52.671Z,2.13
2023-04-05T09:15:56.852Z,2.67
2023-04-05T09:19:59.863Z,2.40
2023-04-05T09:24:02.973Z,2.42
2023-04-05T09:28:08.094Z,2.92
2023-04-05T09:32:13.685Z,2.35
2023-04-05T09:36:20.171Z,2.50
2023-04-05T09:40:24.534Z,2.50
2023-04-05T09:44:49.193Z,2.50
2023-04-05T09:48:52.451Z,2.00
2023-04-05T09:53:07.429Z,1.88
2023-04-05T09:57:12.137Z,2.03
2023-04-05T10:01:17.530Z,2.15
2023-04-05T10:05:24.523Z,1.45
2023-04-05T10:09:29.025Z,1.70
2023-04-05T10:13:32.711Z,1.60
2023-04-05T10:17:46.015Z,1.85
2023-04-05T10:21:50.308Z,1.42
2023-04-05T10:26:05.488Z,1.70
2023-04-05T10:30:09.950Z,1.52
2023-04-05T10:34:22.192Z,1.45
2023-04-05T10:38:27.693Z,1.67
2023-04-05T10:42:43.829Z,1.60
2023-04-05T10:46:47.647Z,1.60
2023-04-05T10:50:53.079Z,1.65
2023-04-05T10:54:59.164Z,2.10
2023-04-05T10:59:03.361Z,1.80
2023-04-05T11:03:06.746Z,1.65
2023-04-05T11:07:16.002Z,1.50
2023-04-05T11:11:23.169Z,1.60
2023-04-05T11:15:34.337Z,1.45
2023-04-05T11:19:52.294Z,1.80
2023-04-05T11:24:07.798Z,2.03
2023-04-05T11:28:23.342Z,1.75
2023-04-05T11:32:40.276Z,1.85
2023-04-05T11:36:46.120Z,2.00
2023-04-05T11:40:51.901Z,1.90
2023-04-05T11:44:55.202Z,1.50
2023-04-05T11:48:58.396Z,1.73
2023-04-05T11:53:12.102Z,2.05
2023-04-05T11:57:21.395Z,2.17
2023-04-05T12:01:24.508Z,1.90
2023-04-05T12:05:27.515Z,1.80
2023-04-05T12:09:30.632Z,2.30
2023-04-05T12:13:36.272Z,2.03
2023-04-05T12:17:44.312Z,1.80
2023-04-05T12:21:47.539Z,1.80
2023-04-05T12:25:50.721Z,1.77
2023-04-05T12:30:08.822Z,1.50
2023-04-05T12:34:13.858Z,1.80
2023-04-05T12:38:17.619Z,1.83
2023-04-05T12:42:21.191Z,2.00
2023-04-05T12:46:40.642Z,1.70
2023-04-05T12:50:45.456Z,1.80
2023-04-05T12:54:55.294Z,1.50
2023-04-05T12:58:58.433Z,1.60
2023-04-05T13:03:03.059Z,1.58
2023-04-05T13:07:06.200Z,2.50
2023-04-05T13:11:10.487Z,1.90
2023-04-05T13:15:14.383Z,1.90
2023-04-05T13:19:18.893Z,1.60
2023-04-05T13:23:22.052Z,2.25
2023-04-05T13:27:25.038Z,1.70
2023-04-05T13:31:28.615Z,1.92
2023-04-05T13:35:33.736Z,1.77
2023-04-05T13:39:36.888Z,1.30
2023-04-05T13:43:39.889Z,1.88
2023-04-05T13:47:43.340Z,1.73
2023-04-05T13:51:47.752Z,1.80
2023-04-05T13:55:51.113Z,1.70
2023-04-05T13:59:54.185Z,1.58
2023-04-05T14:03:57.548Z,2.25
2023-04-05T14:08:02.086Z,1.50
2023-04-05T14:12:06.362Z,1.90
2023-04-05T14:16:09.905Z,1.75
2023-04-05T14:20:13.450Z,2.00
2023-04-05T14:24:17.992Z,1.83
2023-04-05T14:28:21.225Z,1.60
2023-04-05T14:32:25.381Z,1.70
2023-04-05T14:36:28.817Z,1.52
2023-04-05T14:40:33.393Z,1.70
2023-04-05T14:44:36.653Z,1.98
2023-04-05T14:48:40.006Z,1.48
2023-04-05T14:52:43.191Z,1.40
2023-04-05T14:56:48.386Z,1.63
2023-04-05T15:00:52.218Z,1.58
2023-04-05T15:04:55.609Z,1.63
2023-04-05T15:08:59.587Z,1.85
2023-04-05T15:13:04.142Z,1.50
2023-04-05T15:17:11.135Z,3.50
2023-04-05T15:21:14.340Z,2.00
2023-04-05T15:25:17.725Z,1.67
2023-04-05T15:29:22.447Z,1.50
2023-04-05T15:33:25.814Z,2.40
2023-04-05T15:37:29.250Z,1.50
2023-04-05T15:41:34.462Z,1.60
2023-04-05T15:45:39.019Z,1.80
2023-04-05T15:49:43.475Z,1.77
2023-04-05T15:53:46.640Z,1.48
2023-04-05T15:57:54.568Z,1.33
2023-04-05T16:01:59.208Z,1.40
2023-04-05T16:06:02.664Z,1.67
2023-04-05T16:10:07.049Z,1.50
2023-04-05T16:14:11.524Z,1.80
2023-04-05T16:18:19.480Z,1.75
2023-04-05T16:22:22.995Z,1.60
2023-04-05T16:26:26.409Z,1.60
2023-04-05T16:30:29.669Z,1.90
2023-04-05T16:34:34.264Z,1.80
2023-04-05T16:38:37.575Z,1.60
2023-04-05T16:42:40.748Z,1.73
2023-04-05T16:46:46.128Z,1.55
2023-04-05T16:50:50.701Z,1.80
2023-04-05T16:54:53.893Z,2.10
2023-04-05T16:58:57.661Z,1.90
2023-04-05T17:03:01.325Z,1.90
2023-04-05T17:07:05.891Z,2.17
2023-04-05T17:11:09.234Z,1.95
2023-04-05T17:15:12.875Z,2.00
2023-04-05T17:19:16.120Z,1.83
2023-04-05T17:23:20.616Z,1.90
2023-04-05T17:27:25.907Z,1.80
2023-04-05T17:31:29.411Z,1.77
2023-04-05T17:35:32.983Z,1.85
2023-04-05T17:39:37.982Z,2.25
2023-04-05T17:43:41.286Z,1.92
2023-04-05T17:47:44.733Z,1.92
2023-04-05T17:51:56.523Z,2.10
2023-04-05T17:56:01.514Z,2.05
2023-04-05T18:00:05.292Z,2.20
2023-04-05T18:04:11.040Z,1.90
2023-04-05T18:08:16.470Z,1.80
2023-04-05T18:12:22.019Z,1.83
2023-04-05T18:16:25.412Z,1.83
2023-04-05T18:20:28.670Z,2.90
2023-04-05T18:24:31.973Z,2.20
2023-04-05T18:28:36.507Z,2.00
2023-04-05T18:32:40.759Z,1.95
2023-04-05T18:36:43.973Z,1.92
2023-04-05T18:40:48.814Z,2.00
2023-04-05T18:44:53.362Z,2.03
2023-04-05T18:48:57.824Z,2.20
2023-04-05T18:53:01.067Z,2.30
2023-04-05T18:57:04.327Z,2.50
2023-04-05T19:01:12.938Z,2.15
2023-04-05T19:05:16.362Z,2.00
2023-04-05T19:09:20.228Z,2.45
2023-04-05T19:13:23.533Z,2.65
2023-04-05T19:17:28.250Z,2.78
2023-04-05T19:21:31.442Z,2.90
2023-04-05T19:25:34.612Z,2.95
2023-04-05T19:29:37.899Z,3.13
2023-04-05T19:33:42.383Z,2.80
2023-04-05T19:37:45.593Z,2.80
2023-04-05T19:41:48.922Z,2.63
2023-04-05T19:45:58.137Z,3.70
2023-04-05T19:50:04.798Z,3.40
2023-04-05T19:54:11.986Z,3.78
2023-04-05T19:58:28.182Z,3.97
2023-04-05T20:02:37.607Z,3.05
2023-04-05T20:06:43.354Z,3.17
2023-04-05T20:10:49.247Z,3.33
2023-04-05T20:14:53.033Z,2.80
2023-04-05T20:18:59.371Z,3.53
2023-04-05T20:23:05.675Z,3.33
2023-04-05T20:27:08.888Z,3.47
2023-04-05T20:31:21.938Z,3.65
2023-04-05T20:35:33.246Z,3.38
2023-04-05T20:39:37.875Z,2.97
2023-04-05T20:43:42.198Z,3.00
2023-04-05T20:59:26.336Z,2.42
2023-04-05T21:03:30.234Z,2.08
2023-04-05T21:07:34.462Z,2.75
2023-04-05T21:11:37.768Z,2.90
2023-04-05T21:15:42.590Z,2.92
2023-04-05T21:19:46.088Z,2.80
2023-04-05T21:23:50.092Z,2.90
2023-04-05T21:27:53.372Z,2.42
2023-04-05T21:31:58.020Z,2.30
2023-04-05T21:36:03.171Z,2.42
2023-04-05T21:40:07.567Z,2.72
2023-04-05T21:44:11.107Z,2.67
2023-04-05T21:48:15.794Z,2.30
2023-04-05T21:52:19.388Z,2.50
2023-04-05T21:56:22.601Z,2.50
2023-04-05T22:00:26.088Z,2.80
2023-04-05T22:04:31.119Z,2.63
2023-04-05T22:08:35.142Z,2.72
2023-04-05T22:12:38.489Z,2.63
2023-04-05T22:16:41.806Z,2.75
2023-04-05T22:20:46.715Z,3.10
2023-04-05T22:24:50.048Z,2.88
2023-04-05T22:28:53.331Z,2.78
2023-04-05T22:32:56.764Z,2.50
2023-04-05T22:37:01.608Z,2.35
2023-04-05T22:41:04.979Z,2.90
2023-04-05T22:45:09.785Z,2.90
2023-04-05T22:49:13.172Z,2.47
2023-04-05T22:53:17.864Z,3.00
2023-04-05T22:57:21.075Z,2.75
2023-04-05T23:01:24.272Z,2.67
2023-04-05T23:05:27.601Z,2.70
2023-04-05T23:09:32.192Z,2.92
2023-04-05T23:13:35.457Z,2.92
2023-04-05T23:17:38.734Z,2.75
2023-04-05T23:21:42.072Z,3.20
2023-04-05T23:25:46.732Z,3.13
2023-04-05T23:29:49.954Z,3.57
2023-04-05T23:33:53.153Z,3.33
2023-04-05T23:37:56.317Z,3.55
2023-04-05T23:42:01.312Z,3.27
2023-04-05T23:46:04.769Z,2.97
2023-04-05T23:50:09.629Z,3.42
2023-04-05T23:54:12.787Z,3.03
2023-04-05T23:58:17.355Z,2.78
